Time;durP1;ratioP1;P1;durP2;ratioP2;P2;SDS_P1;SDS_P2;PMS_P1;PMS_P2;Temp;Humidity;BMP_temperature;BMP_pressure;BME280_temperature;BME280_humidity;BME280_pressure;Samples;Min_cycle;Max_cycle;Signal;HPM_P1;HPM_P2
2022/12/17 13:07:30;;;;;;;11.10;8.50;;;;;;;;;;108034;1282;22563;-29
2022/12/17 13:10:16;;;;;;;12.20;8.40;;;;;;;;;;108222;1274;24827;-29
2022/12/17 13:12:50;;;;;;;11.50;8.60;;;;;;;;;;108231;1269;22581;-30
2022/12/17 13:15:35;;;;;;;11.00;8.60;;;;;;;;;;108337;1275;26090;-30
2022/12/17 13:18:23;;;;;;;10.60;8.50;;;;;;;;;;108345;1275;24921;-30
2022/12/17 13:21:20;;;;;;;11.30;9.10;;;;;;;;;;108355;1275;22585;-30
2022/12/17 13:23:54;;;;;;;10.60;8.60;;;;;;;;;;108285;1268;22571;-30
2022/12/17 13:26:44;;;;;;;12.20;9.10;;;;;;;;;;108310;1268;22565;-30
2022/12/17 13:29:30;;;;;;;11.20;8.80;;;;;;;;;;108285;1269;22621;-30
2022/12/17 13:32:21;;;;;;;10.80;8.60;;;;;;;;;;108299;1273;23679;-30
2022/12/17 13:35:16;;;;;;;11.70;8.80;;;;;;;;;;108325;1272;22607;-30
2022/12/17 13:38:00;;;;;;;11.90;9.00;;;;;;;;;;108402;1268;22561;-30
2022/12/17 13:40:47;;;;;;;12.60;9.00;;;;;;;;;;108377;1275;22565;-30
2022/12/17 13:43:25;;;;;;;11.60;8.90;;;;;;;;;;108257;1268;22580;-30
2022/12/17 13:45:59;;;;;;;12.60;9.30;;;;;;;;;;108326;1268;22575;-30
2022/12/17 13:48:32;;;;;;;12.20;9.50;;;;;;;;;;108326;1268;22631;-30
2022/12/17 13:51:18;;;;;;;12.40;9.90;;;;;;;;;;108296;1272;22577;-30
2022/12/17 13:53:58;;;;;;;12.70;9.50;;;;;;;;;;108302;1275;22584;-30
2022/12/17 13:56:36;;;;;;;12.60;9.70;;;;;;;;;;108345;1272;22574;-30
2022/12/17 13:59:20;;;;;;;12.20;9.70;;;;;;;;;;108363;1272;22608;-29
2022/12/17 14:01:55;;;;;;;13.40;11.20;;;;;;;;;;108316;1269;22564;-30
2022/12/17 14:04:31;;;;;;;12.20;9.20;;;;;;;;;;108277;1275;22593;-30
2022/12/17 14:07:08;;;;;;;12.90;10.30;;;;;;;;;;108304;1274;22585;-30
2022/12/17 14:09:44;;;;;;;13.90;10.00;;;;;;;;;;108317;1272;22557;-30
2022/12/17 14:12:24;;;;;;;12.50;9.70;;;;;;;;;;108339;1274;25234;-28
2022/12/17 14:15:01;;;;;;;12.80;10.00;;;;;;;;;;108287;1269;22584;-28
2022/12/17 14:17:42;;;;;;;12.90;9.90;;;;;;;;;;108310;1272;22712;-28
2022/12/17 14:20:19;;;;;;;13.70;9.80;;;;;;;;;;108326;1272;22594;-28
2022/12/17 14:22:56;;;;;;;12.80;9.80;;;;;;;;;;108346;1275;22597;-27
2022/12/17 14:25:36;;;;;;;13.10;10.10;;;;;;;;;;108291;1273;22617;-28
2022/12/17 14:28:25;;;;;;;11.40;9.50;;;;;;;;;;108316;1269;22575;-28
2022/12/17 14:31:08;;;;;;;12.80;9.90;;;;;;;;;;108305;1274;24812;-28
2022/12/17 14:34:07;;;;;;;12.40;9.40;;;;;;;;;;108269;1269;22561;-28
2022/12/17 14:36:43;;;;;;;13.40;9.50;;;;;;;;;;108371;1271;22611;-28
2022/12/17 14:39:22;;;;;;;12.20;9.50;;;;;;;;;;108362;1275;22614;-28
2022/12/17 14:42:28;;;;;;;13.90;9.60;;;;;;;;;;108383;1268;22574;-28
2022/12/17 14:45:05;;;;;;;11.60;9.30;;;;;;;;;;108286;1268;22623;-28
2022/12/17 14:47:40;;;;;;;13.30;10.00;;;;;;;;;;108287;1268;22573;-28
2022/12/17 14:50:32;;;;;;;12.40;9.90;;;;;;;;;;108319;1269;25624;-28
2022/12/17 14:53:25;;;;;;;12.50;9.90;;;;;;;;;;108299;1269;24779;-28
2022/12/17 14:56:00;;;;;;;12.60;9.90;;;;;;;;;;108272;1275;21914;-28
2022/12/17 14:58:33;;;;;;;11.40;9.70;;;;;;;;;;108345;1269;22585;-28
2022/12/17 15:01:13;;;;;;;11.70;9.00;;;;;;;;;;108288;1269;22567;-28
2022/12/17 15:03:48;;;;;;;13.70;10.40;;;;;;;;;;108330;1269;24843;-29
2022/12/17 15:06:22;;;;;;;12.50;9.40;;;;;;;;;;108164;1272;24185;-27
2022/12/17 15:08:55;;;;;;;12.00;9.80;;;;;;;;;;108180;1271;22586;-28
2022/12/17 15:11:29;;;;;;;12.50;9.60;;;;;;;;;;108175;1275;22578;-28
2022/12/17 15:14:02;;;;;;;13.00;10.10;;;;;;;;;;108164;1277;22572;-28
2022/12/17 15:16:35;;;;;;;12.60;10.30;;;;;;;;;;108238;1272;22597;-28
2022/12/17 15:19:09;;;;;;;13.50;10.30;;;;;;;;;;108315;1272;24705;-28
2022/12/17 15:21:42;;;;;;;12.50;9.50;;;;;;;;;;108293;1268;22569;-29
2022/12/17 15:24:23;;;;;;;12.90;9.70;;;;;;;;;;108305;1270;22658;-29
2022/12/17 15:26:57;;;;;;;13.60;10.60;;;;;;;;;;108242;1270;22569;-29
2022/12/17 15:29:33;;;;;;;12.10;9.40;;;;;;;;;;108309;1268;22576;-29
2022/12/17 15:32:07;;;;;;;13.00;9.70;;;;;;;;;;108324;1268;22710;-28
2022/12/17 15:34:41;;;;;;;12.70;10.20;;;;;;;;;;108336;1269;22578;-28
2022/12/17 15:37:16;;;;;;;13.80;10.40;;;;;;;;;;108282;1269;22594;-29
2022/12/17 15:39:56;;;;;;;12.70;10.20;;;;;;;;;;108336;1272;22620;-29
2022/12/17 15:45:21;;;;;;;12.60;10.30;;;;;;;;;;108275;1269;22610;-29
2022/12/17 15:47:55;;;;;;;14.10;10.60;;;;;;;;;;108311;1270;22586;-30
2022/12/17 15:50:28;;;;;;;12.80;9.70;;;;;;;;;;108293;1274;22573;-29
2022/12/17 15:53:02;;;;;;;12.90;10.60;;;;;;;;;;108299;1268;22574;-29
2022/12/17 15:55:36;;;;;;;13.50;9.50;;;;;;;;;;108271;1269;22583;-28
2022/12/17 15:58:12;;;;;;;13.80;9.70;;;;;;;;;;108346;1269;22569;-29
2022/12/17 16:00:46;;;;;;;11.30;9.30;;;;;;;;;;108318;1269;26014;-28
2022/12/17 16:03:19;;;;;;;12.90;9.60;;;;;;;;;;108328;1268;24381;-28
2022/12/17 16:05:53;;;;;;;12.70;9.80;;;;;;;;;;108295;1269;22728;-28
2022/12/17 16:08:26;;;;;;;12.50;9.60;;;;;;;;;;108311;1269;22568;-28
2022/12/17 16:11:00;;;;;;;12.30;9.20;;;;;;;;;;108302;1268;22594;-28
2022/12/17 16:13:32;;;;;;;;;;;;;;;;;;108320;1276;22564;-28
2022/12/17 16:16:08;;;;;;;12.10;9.60;;;;;;;;;;108274;1268;22570;-29
2022/12/17 16:18:43;;;;;;;13.00;10.00;;;;;;;;;;108366;1268;22581;-30
2022/12/17 16:21:17;;;;;;;12.40;9.80;;;;;;;;;;108400;1272;22577;-30
2022/12/17 16:23:51;;;;;;;12.30;10.20;;;;;;;;;;108363;1276;22597;-30
2022/12/17 16:26:24;;;;;;;12.90;9.90;;;;;;;;;;108303;1272;22575;-31
2022/12/17 16:29:00;;;;;;;14.30;10.40;;;;;;;;;;108310;1268;22567;-31
2022/12/17 16:31:34;;;;;;;12.80;10.10;;;;;;;;;;108324;1265;22561;-30
2022/12/17 16:34:12;;;;;;;11.00;9.10;;;;;;;;;;108291;1269;22620;-30
2022/12/17 16:36:46;;;;;;;13.40;10.10;;;;;;;;;;108218;1268;22565;-30
2022/12/17 16:39:21;;;;;;;12.90;9.90;;;;;;;;;;108317;1269;24895;-30
2022/12/17 16:41:54;;;;;;;12.50;10.00;;;;;;;;;;108292;1275;24885;-30
2022/12/17 16:44:28;;;;;;;12.20;10.00;;;;;;;;;;108303;1275;22558;-30
2022/12/17 16:47:02;;;;;;;13.30;9.70;;;;;;;;;;108220;1269;24915;-32
2022/12/17 16:49:36;;;;;;;13.60;10.20;;;;;;;;;;108215;1269;23175;-32
2022/12/17 16:52:10;;;;;;;12.10;9.70;;;;;;;;;;108319;1276;22575;-32
2022/12/17 16:54:44;;;;;;;12.60;10.20;;;;;;;;;;108282;1274;22587;-32
2022/12/17 16:57:18;;;;;;;12.20;10.30;;;;;;;;;;108284;1275;22589;-32
2022/12/17 16:59:50;;;;;;;;;;;;;;;;;;108342;1269;22617;-32
2022/12/17 17:02:23;;;;;;;13.00;9.50;;;;;;;;;;108241;1269;25360;-32
2022/12/17 17:04:58;;;;;;;12.90;10.40;;;;;;;;;;108328;1273;22728;-32
2022/12/17 17:07:30;;;;;;;;;;;;;;;;;;108262;1268;22565;-32
2022/12/17 17:10:04;;;;;;;13.10;9.90;;;;;;;;;;108347;1268;22564;-29
2022/12/17 17:12:37;;;;;;;14.50;10.20;;;;;;;;;;108318;1269;24267;-29
2022/12/17 17:15:12;;;;;;;13.10;10.10;;;;;;;;;;108329;1276;22568;-30
2022/12/17 17:17:46;;;;;;;11.70;9.80;;;;;;;;;;108295;1269;22570;-31
2022/12/17 17:20:30;;;;;;;12.10;9.20;;;;;;;;;;108369;1269;22560;-31
2022/12/17 17:23:05;;;;;;;12.30;9.50;;;;;;;;;;108375;1269;22682;-31
2022/12/17 17:25:40;;;;;;;12.20;9.60;;;;;;;;;;108330;1272;22578;-31
2022/12/17 17:28:31;;;;;;;13.40;9.80;;;;;;;;;;108277;1268;22558;-32
2022/12/17 17:31:07;;;;;;;10.70;8.80;;;;;;;;;;108294;1268;23917;-31
2022/12/17 17:33:45;;;;;;;12.50;8.90;;;;;;;;;;108333;1262;25406;-31
2022/12/17 17:36:22;;;;;;;10.50;8.50;;;;;;;;;;108316;1274;22597;-30
2022/12/17 17:38:58;;;;;;;11.80;9.20;;;;;;;;;;108297;1273;22588;-30
2022/12/17 17:41:35;;;;;;;10.70;9.10;;;;;;;;;;108375;1268;22567;-30
2022/12/17 17:44:12;;;;;;;10.60;8.50;;;;;;;;;;108331;1268;22606;-30
2022/12/17 17:46:46;;;;;;;10.80;8.90;;;;;;;;;;108350;1269;22603;-30
2022/12/17 17:49:19;;;;;;;10.80;8.00;;;;;;;;;;108266;1268;22564;-30
2022/12/17 17:51:53;;;;;;;11.50;8.60;;;;;;;;;;108321;1268;22582;-30
2022/12/17 17:54:44;;;;;;;10.80;8.40;;;;;;;;;;108302;1269;22713;-31
2022/12/17 17:57:18;;;;;;;10.60;8.20;;;;;;;;;;108276;1268;25359;-31
2022/12/17 17:59:52;;;;;;;11.00;8.10;;;;;;;;;;108332;1269;23880;-31
2022/12/17 18:02:26;;;;;;;10.50;8.20;;;;;;;;;;108343;1267;22567;-31
2022/12/17 18:05:00;;;;;;;10.70;8.20;;;;;;;;;;108355;1268;22515;-30
2022/12/17 18:07:33;;;;;;;12.20;8.80;;;;;;;;;;108371;1276;22572;-30
2022/12/17 18:10:08;;;;;;;;;;;;;;;;;;108295;1269;22709;-30
2022/12/17 18:15:33;;;;;;;16.80;15.20;;;;;;;;;;108296;1268;22585;-30
2022/12/17 18:18:08;;;;;;;18.20;16.40;;;;;;;;;;108324;1269;22579;-32
2022/12/17 18:20:47;;;;;;;17.60;15.90;;;;;;;;;;108322;1269;22566;-31
2022/12/17 18:23:21;;;;;;;16.50;14.90;;;;;;;;;;108367;1269;22562;-31
2022/12/17 18:25:54;;;;;;;16.00;14.50;;;;;;;;;;108351;1269;22571;-29
2022/12/17 18:28:31;;;;;;;16.30;14.60;;;;;;;;;;108334;1269;23403;-28
2022/12/17 18:31:12;;;;;;;15.10;13.60;;;;;;;;;;108312;1268;22571;-28
2022/12/17 18:33:50;;;;;;;16.10;14.60;;;;;;;;;;108356;1268;22581;-28
2022/12/17 18:36:27;;;;;;;14.70;13.20;;;;;;;;;;108323;1275;22634;-29
2022/12/17 18:39:03;;;;;;;14.10;12.70;;;;;;;;;;108289;1268;22574;-30
2022/12/17 18:44:31;;;;;;;14.00;12.50;;;;;;;;;;108330;1272;22572;-30
2022/12/17 18:47:05;;;;;;;14.40;13.00;;;;;;;;;;108354;1269;22559;-30
2022/12/17 18:49:39;;;;;;;13.90;12.50;;;;;;;;;;108283;1269;22769;-30
2022/12/17 18:52:13;;;;;;;14.10;12.60;;;;;;;;;;108319;1269;22570;-30
2022/12/17 18:54:49;;;;;;;12.50;11.20;;;;;;;;;;108294;1268;22581;-30
2022/12/17 18:57:23;;;;;;;13.90;12.50;;;;;;;;;;108298;1268;22573;-30
2022/12/17 18:59:56;;;;;;;13.20;11.80;;;;;;;;;;108303;1268;22512;-30
2022/12/17 19:02:28;;;;;;;;;;;;;;;;;;108318;1269;22575;-31
2022/12/17 19:05:02;;;;;;;12.70;11.40;;;;;;;;;;108327;1272;22581;-32
2022/12/17 19:07:36;;;;;;;12.40;11.10;;;;;;;;;;108335;1269;22550;-31
2022/12/17 19:10:11;;;;;;;12.50;11.30;;;;;;;;;;108210;1274;106575;-29
2022/12/17 19:12:44;;;;;;;14.10;12.70;;;;;;;;;;108348;1276;22568;-28
2022/12/17 19:15:17;;;;;;;;;;;;;;;;;;108345;1276;22541;-29
2022/12/17 19:17:50;;;;;;;13.80;12.40;;;;;;;;;;108294;1268;22739;-30
2022/12/17 19:20:24;;;;;;;13.40;12.00;;;;;;;;;;108305;1268;22556;-30
2022/12/17 19:22:56;;;;;;;;;;;;;;;;;;108374;1269;25654;-30
2022/12/17 19:25:30;;;;;;;13.10;11.70;;;;;;;;;;108359;1271;22584;-30
2022/12/17 19:28:03;;;;;;;13.70;12.30;;;;;;;;;;108380;1276;24205;-31
2022/12/17 19:30:36;;;;;;;12.80;11.20;;;;;;;;;;108322;1268;22704;-29
2022/12/17 19:33:10;;;;;;;13.20;11.90;;;;;;;;;;108308;1268;22567;-29
2022/12/17 19:35:43;;;;;;;12.80;11.60;;;;;;;;;;108192;1271;22846;-29
2022/12/17 19:38:16;;;;;;;;;;;;;;;;;;108335;1276;22542;-29
2022/12/17 19:40:52;;;;;;;12.70;11.30;;;;;;;;;;108316;1272;22558;-29
2022/12/17 19:43:27;;;;;;;13.50;12.10;;;;;;;;;;108370;1269;24944;-29
2022/12/17 19:46:07;;;;;;;13.30;12.00;;;;;;;;;;108369;1269;22575;-30
2022/12/17 19:48:43;;;;;;;13.80;12.20;;;;;;;;;;108354;1269;22653;-29
2022/12/17 19:51:24;;;;;;;13.20;11.90;;;;;;;;;;108274;1268;22585;-29
2022/12/17 19:53:58;;;;;;;12.90;11.30;;;;;;;;;;108312;1269;22578;-29
2022/12/17 19:56:44;;;;;;;12.30;11.00;;;;;;;;;;108326;1268;22584;-29
2022/12/17 19:59:17;;;;;;;12.20;10.90;;;;;;;;;;108335;1268;22629;-29
2022/12/17 20:01:52;;;;;;;13.50;11.90;;;;;;;;;;108314;1272;25346;-29
2022/12/17 20:04:27;;;;;;;12.90;10.80;;;;;;;;;;108358;1269;24590;-29
2022/12/17 20:07:00;;;;;;;13.70;11.20;;;;;;;;;;108346;1269;22568;-30
2022/12/17 20:09:34;;;;;;;13.20;11.30;;;;;;;;;;108342;1269;22573;-29
2022/12/17 20:12:09;;;;;;;12.60;11.10;;;;;;;;;;108281;1269;24436;-29
2022/12/17 20:14:42;;;;;;;12.20;10.70;;;;;;;;;;108329;1268;26678;-29
2022/12/17 20:17:16;;;;;;;12.70;11.20;;;;;;;;;;108302;1268;22580;-29
2022/12/17 20:19:52;;;;;;;;;;;;;;;;;;108340;1269;24987;-30
2022/12/17 20:22:25;;;;;;;13.20;11.50;;;;;;;;;;108314;1273;22631;-29
2022/12/17 20:25:03;;;;;;;13.80;11.10;;;;;;;;;;108345;1269;25428;-29
2022/12/17 20:27:37;;;;;;;12.30;10.60;;;;;;;;;;108340;1272;22566;-29
2022/12/17 20:30:13;;;;;;;13.60;11.70;;;;;;;;;;108331;1272;24778;-30
2022/12/17 20:32:46;;;;;;;13.90;12.10;;;;;;;;;;108308;1268;22555;-30
2022/12/17 20:35:21;;;;;;;13.40;11.10;;;;;;;;;;108278;1269;22572;-29
2022/12/17 20:37:54;;;;;;;13.40;12.00;;;;;;;;;;108280;1269;22566;-29
2022/12/17 20:40:26;;;;;;;;;;;;;;;;;;108290;1268;22545;-29
2022/12/17 20:43:00;;;;;;;13.40;11.50;;;;;;;;;;108261;1269;22626;-29
2022/12/17 20:45:34;;;;;;;12.80;11.30;;;;;;;;;;108292;1269;23798;-29
2022/12/17 20:48:08;;;;;;;12.30;10.70;;;;;;;;;;108318;1268;22617;-30
2022/12/17 20:50:42;;;;;;;13.00;10.90;;;;;;;;;;108322;1272;22563;-30
2022/12/17 20:53:16;;;;;;;12.30;10.80;;;;;;;;;;108229;1268;22560;-30
2022/12/17 20:55:48;;;;;;;;;;;;;;;;;;108238;1271;22602;-30
2022/12/17 20:58:22;;;;;;;12.10;10.30;;;;;;;;;;108279;1268;22569;-30
2022/12/17 21:00:54;;;;;;;;;;;;;;;;;;108283;1268;22545;-29
2022/12/17 21:03:27;;;;;;;11.70;9.70;;;;;;;;;;108184;1272;22569;-31
2022/12/17 21:06:08;;;;;;;11.10;9.80;;;;;;;;;;108273;1269;22564;-30
2022/12/17 21:08:43;;;;;;;11.60;9.90;;;;;;;;;;108337;1272;24262;-30
2022/12/17 21:11:25;;;;;;;11.80;10.10;;;;;;;;;;108329;1269;25237;-30
2022/12/17 21:14:01;;;;;;;11.00;9.00;;;;;;;;;;108246;1269;22566;-30
2022/12/17 21:19:23;;;;;;;11.20;9.60;;;;;;;;;;104828;1308;550029;-30
2022/12/17 21:21:57;;;;;;;11.80;9.80;;;;;;;;;;107579;1283;22573;-30
2022/12/17 21:24:30;;;;;;;11.40;9.70;;;;;;;;;;107442;1286;22569;-30
2022/12/17 21:27:02;;;;;;;;;;;;;;;;;;107144;1299;31105;-28
2022/12/17 21:29:35;;;;;;;11.30;9.30;;;;;;;;;;106540;1292;22604;-30
2022/12/17 21:33:54;;;;;;;10.20;8.90;;;;;;;;;;104919;1312;549700;-29
2022/12/17 21:36:30;;;;;;;11.20;9.20;;;;;;;;;;107171;1286;22591;-30
2022/12/17 21:39:06;;;;;;;12.40;9.40;;;;;;;;;;106756;1304;30428;-30
2022/12/17 21:43:00;;;;;;;10.90;8.70;;;;;;;;;;106465;1304;30580;-30
2022/12/17 21:44:38;;;;;;;9.70;8.10;;;;;;;;;;106275;1292;31032;-29
2022/12/17 21:47:12;;;;;;;9.90;8.10;;;;;;;;;;105982;1307;384275;-29
2022/12/17 21:49:43;;;;;;;;;;;;;;;;;;106340;1307;22571;-29
2022/12/17 21:52:16;;;;;;;10.10;8.60;;;;;;;;;;106283;1307;32381;-29
2022/12/17 21:54:48;;;;;;;;;;;;;;;;;;106441;1293;22551;-30
2022/12/17 21:57:21;;;;;;;9.80;8.00;;;;;;;;;;106405;1305;44400;-30
2022/12/17 21:59:55;;;;;;;11.10;8.50;;;;;;;;;;106458;1302;31090;-29
2022/12/17 22:02:28;;;;;;;9.20;7.80;;;;;;;;;;106563;1289;56225;-30
2022/12/17 22:05:02;;;;;;;10.40;8.20;;;;;;;;;;107020;1286;32132;-30
2022/12/17 22:07:36;;;;;;;10.90;8.10;;;;;;;;;;107390;1299;22554;-30
2022/12/17 22:10:22;;;;;;;10.20;8.50;;;;;;;;;;107517;1283;44063;-30
2022/12/17 22:16:11;;;;;;;10.60;8.50;;;;;;;;;;107017;1302;22616;-28
2022/12/17 22:18:44;;;;;;;10.50;7.90;;;;;;;;;;107559;1302;22570;-30
2022/12/17 22:21:18;;;;;;;9.50;7.60;;;;;;;;;;107090;1286;22567;-30
2022/12/17 22:23:52;;;;;;;10.80;9.10;;;;;;;;;;107083;1291;23485;-31
2022/12/17 22:26:26;;;;;;;10.60;8.40;;;;;;;;;;107658;1285;22567;-30
2022/12/17 22:29:01;;;;;;;10.50;8.30;;;;;;;;;;107670;1283;22567;-30
2022/12/17 22:34:36;;;;;;;10.50;7.90;;;;;;;;;;106947;1286;22587;-30
2022/12/17 22:37:30;;;;;;;9.20;7.80;;;;;;;;;;107109;1285;22681;-30
2022/12/17 22:40:23;;;;;;;10.40;8.20;;;;;;;;;;107080;1301;26506;-30
2022/12/17 22:43:32;;;;;;;10.00;7.90;;;;;;;;;;107087;1286;22618;-30
2022/12/17 22:46:25;;;;;;;11.00;7.40;;;;;;;;;;107520;1282;22574;-30
2022/12/17 22:49:00;;;;;;;9.00;7.90;;;;;;;;;;107613;1283;22579;-30
2022/12/17 22:51:34;;;;;;;9.50;7.50;;;;;;;;;;107614;1283;24822;-30
2022/12/17 22:54:15;;;;;;;8.90;7.20;;;;;;;;;;107600;1289;26072;-30
2022/12/17 22:56:49;;;;;;;9.40;7.60;;;;;;;;;;107043;1286;22572;-30
2022/12/17 22:59:42;;;;;;;8.70;7.80;;;;;;;;;;107056;1301;26138;-31
2022/12/17 23:02:17;;;;;;;8.70;7.40;;;;;;;;;;107247;1300;24883;-31
2022/12/17 23:04:52;;;;;;;9.50;7.50;;;;;;;;;;107262;1292;23513;-31
2022/12/17 23:07:26;;;;;;;9.10;7.00;;;;;;;;;;107713;1281;22590;-30
2022/12/17 23:10:05;;;;;;;9.70;7.70;;;;;;;;;;107730;1282;22560;-29
2022/12/17 23:12:51;;;;;;;10.00;7.90;;;;;;;;;;107702;1297;22565;-29
2022/12/17 23:15:35;;;;;;;9.50;8.00;;;;;;;;;;107584;1286;24644;-29
2022/12/17 23:18:10;;;;;;;9.00;8.10;;;;;;;;;;107263;1300;23672;-29
2022/12/17 23:20:43;;;;;;;8.90;7.20;;;;;;;;;;107262;1286;22586;-30
2022/12/17 23:23:17;;;;;;;9.60;7.90;;;;;;;;;;107245;1300;22580;-29
2022/12/17 23:25:51;;;;;;;9.60;8.40;;;;;;;;;;107349;1282;22576;-30
2022/12/17 23:28:25;;;;;;;9.50;7.40;;;;;;;;;;107732;1296;22598;-30
2022/12/17 23:30:59;;;;;;;9.50;7.90;;;;;;;;;;107702;1297;22574;-29
2022/12/17 23:33:32;;;;;;;8.80;7.70;;;;;;;;;;107673;1292;22567;-30
2022/12/17 23:36:10;;;;;;;8.90;7.50;;;;;;;;;;107516;1286;24818;-30
2022/12/17 23:38:45;;;;;;;9.30;7.20;;;;;;;;;;107275;1300;22586;-29
2022/12/17 23:41:21;;;;;;;10.20;7.70;;;;;;;;;;107265;1301;25246;-29
2022/12/17 23:43:56;;;;;;;10.60;7.60;;;;;;;;;;107234;1300;24844;-30
2022/12/17 23:46:31;;;;;;;9.40;7.80;;;;;;;;;;107394;1296;26123;-30
2022/12/17 23:49:07;;;;;;;10.10;8.00;;;;;;;;;;107693;1283;22573;-29
2022/12/17 23:51:40;;;;;;;9.70;7.70;;;;;;;;;;107709;1293;22597;-29
2022/12/17 23:54:14;;;;;;;8.80;7.50;;;;;;;;;;107712;1298;22566;-29
2022/12/17 23:56:48;;;;;;;9.30;7.50;;;;;;;;;;107460;1286;24002;-29
2022/12/17 23:59:23;;;;;;;9.10;7.40;;;;;;;;;;107240;1300;22578;-29
